37 Rocks — ZM3003 — position and weather

sailwx.info

Track history (hours):
 
Tides and Currents Weather Stations Pressure Air Temp Water Temp Dewpoint Dewpoint Depression Visibility Wind Speed Wind Dir Waves Ship Positions

37 Rocks

Last reported at 2017-Sep-12 06:36 UTC. Time now 2017-Dec-14 10:15 UTC.
Position N 35°29' E 031°45'.
Warning: this ship's position is months out of date.

Length 17 m.

Type: Sailing vessel. MMSI: 512003230.

Date/timePositionNaut miles runAvg speedWind from/ knotsBaromVisibWave heightAir tempDewpointWater temp
2017-Sep-12 06:36N 35°29' E 031°45'1 5.3
2017-Sep-12 06:30N 35°29' E 031°44'3 5.3
2017-Sep-12 06:00N 35°29' E 031°41'2 5.0
2017-Sep-12 05:30N 35°30' E 031°38'3 5.2
2017-Sep-12 05:00N 35°30' E 031°35'8 7.5
2017-Sep-12 03:54N 35°32' E 031°24'3 7.5
2017-Sep-12 03:31N 35°33' E 031°21'4 7.6
2017-Sep-12 03:00N 35°33' E 031°16'4 7.4
2017-Sep-12 02:30N 35°34' E 031°12'4 7.3
2017-Sep-12 02:00N 35°35' E 031°08'4 7.1
2017-Sep-12 01:30N 35°36' E 031°03'4 7.0
2017-Sep-12 00:58N 35°38' E 030°59'3 7.1
2017-Sep-12 00:30N 35°39' E 030°55'4 7.4
2017-Sep-12 00:00N 35°40' E 030°51'4 7.4
2017-Sep-11 23:30N 35°42' E 030°47'4 7.4
2017-Sep-11 23:00N 35°44' E 030°43'4 7.5
2017-Sep-11 22:30N 35°46' E 030°39'4 7.7
2017-Sep-11 22:00N 35°47' E 030°35'4 8.0
2017-Sep-11 21:30N 35°49' E 030°31'2 3.9
2017-Sep-11 21:00N 35°51' E 030°29'2 4.1
2017-Sep-11 20:28N 35°53' E 030°28'4 3.9
2017-Sep-11 19:25N 35°56' E 030°25'  
Track history (hours):
 
Tides and Currents Weather Stations Pressure Air Temp Water Temp Dewpoint Dewpoint Depression Visibility Wind Speed Wind Dir Waves Ship Positions

37 Rocks

Last reported at 2017-Sep-12 06:36 UTC. Time now 2017-Dec-14 10:15 UTC.
Position N 35°29' E 031°45'.
Warning: this ship's position is months out of date.

Length 17 m.

Type: Sailing vessel. MMSI: 512003230.

Date/timePositionNaut miles runAvg speedWind from/ knotsBaromVisibWave heightAir tempDewpointWater temp
2017-Sep-12 06:36N 35°29' E 031°45'1 5.3
2017-Sep-12 06:30N 35°29' E 031°44'3 5.3
2017-Sep-12 06:00N 35°29' E 031°41'2 5.0
2017-Sep-12 05:30N 35°30' E 031°38'3 5.2
2017-Sep-12 05:00N 35°30' E 031°35'8 7.5
2017-Sep-12 03:54N 35°32' E 031°24'3 7.5
2017-Sep-12 03:31N 35°33' E 031°21'4 7.6
2017-Sep-12 03:00N 35°33' E 031°16'4 7.4
2017-Sep-12 02:30N 35°34' E 031°12'4 7.3
2017-Sep-12 02:00N 35°35' E 031°08'4 7.1
2017-Sep-12 01:30N 35°36' E 031°03'4 7.0
2017-Sep-12 00:58N 35°38' E 030°59'3 7.1
2017-Sep-12 00:30N 35°39' E 030°55'4 7.4
2017-Sep-12 00:00N 35°40' E 030°51'4 7.4
2017-Sep-11 23:30N 35°42' E 030°47'4 7.4
2017-Sep-11 23:00N 35°44' E 030°43'4 7.5
2017-Sep-11 22:30N 35°46' E 030°39'4 7.7
2017-Sep-11 22:00N 35°47' E 030°35'4 8.0
2017-Sep-11 21:30N 35°49' E 030°31'2 3.9
2017-Sep-11 21:00N 35°51' E 030°29'2 4.1
2017-Sep-11 20:28N 35°53' E 030°28'4 3.9
2017-Sep-11 19:25N 35°56' E 030°25'  

Dump ship's entire track history